Time;durP1;ratioP1;P1;durP2;ratioP2;P2;SDS_P1;SDS_P2;PMS_P1;PMS_P2;Temp;Humidity;BMP_temperature;BMP_pressure;BME280_temperature;BME280_humidity;BME280_pressure;Samples;Min_cycle;Max_cycle;Signal;HPM_P1;HPM_P2
2022/09/06 00:00:30;;;;;;;6.72;3.65;;;22.00;72.50;;;;;;5038353;28;20203;-77
2022/09/06 00:02:59;;;;;;;9.65;3.72;;;22.00;72.70;;;;;;5039045;28;20199;-77
2022/09/06 00:05:29;;;;;;;8.63;3.42;;;21.90;72.80;;;;;;5041287;28;20223;-77
2022/09/06 00:07:59;;;;;;;11.15;3.85;;;21.90;72.80;;;;;;5036510;28;20207;-77
2022/09/06 00:10:29;;;;;;;6.13;2.95;;;21.90;73.10;;;;;;5039142;28;20187;-78
2022/09/06 00:13:01;;;;;;;9.15;3.90;;;21.90;73.30;;;;;;5030457;28;20203;-78
2022/09/06 00:15:31;;;;;;;6.43;3.10;;;21.90;73.60;;;;;;5040363;28;20233;-78
2022/09/06 00:18:00;;;;;;;6.85;3.53;;;21.90;73.70;;;;;;5039837;28;20195;-77
2022/09/06 00:20:30;;;;;;;8.50;3.42;;;21.90;73.70;;;;;;5044409;28;20206;-78
2022/09/06 00:22:59;;;;;;;6.32;3.38;;;21.80;73.70;;;;;;5040098;28;20208;-78
2022/09/06 00:25:27;;;;;;;7.07;3.65;;;21.80;74.00;;;;;;5037604;28;20211;-78
2022/09/06 00:27:57;;;;;;;6.13;3.55;;;21.80;74.10;;;;;;5041007;28;20207;-80
2022/09/06 00:30:26;;;;;;;6.32;3.40;;;21.80;74.10;;;;;;5035205;28;20198;-78
2022/09/06 00:32:56;;;;;;;5.45;3.08;;;21.80;74.40;;;;;;5038992;28;20198;-79
2022/09/06 00:35:26;;;;;;;6.00;3.40;;;21.80;74.70;;;;;;5038451;28;20203;-79
2022/09/06 00:37:57;;;;;;;6.53;3.42;;;21.80;74.90;;;;;;5036663;28;20230;-79
2022/09/06 00:40:28;;;;;;;6.28;3.25;;;21.70;75.00;;;;;;5037674;28;20203;-77
2022/09/06 00:42:57;;;;;;;7.05;3.40;;;21.70;75.20;;;;;;5035957;28;20229;-77
2022/09/06 00:45:27;;;;;;;5.32;2.95;;;21.70;75.50;;;;;;5035849;28;20214;-78
2022/09/06 00:47:59;;;;;;;8.60;3.65;;;21.70;75.80;;;;;;5037388;28;20203;-78
2022/09/06 00:50:28;;;;;;;7.78;3.72;;;21.60;76.10;;;;;;5040327;28;20652;-77
2022/09/06 00:52:57;;;;;;;6.82;3.42;;;21.60;76.20;;;;;;5040676;28;20282;-77
2022/09/06 00:55:25;;;;;;;9.27;4.13;;;21.60;76.40;;;;;;5039910;28;20191;-77
2022/09/06 00:57:55;;;;;;;9.90;3.50;;;21.50;76.50;;;;;;5046216;28;20743;-77
2022/09/06 01:00:24;;;;;;;5.70;3.42;;;21.50;76.70;;;;;;5045273;28;20287;-77
2022/09/06 01:02:54;;;;;;;10.77;3.67;;;21.50;77.10;;;;;;5043900;28;20203;-78
2022/09/06 01:05:29;;;;;;;5.28;3.13;;;21.50;77.50;;;;;;5042762;28;20249;-79
2022/09/06 01:08:11;;;;;;;11.30;3.58;;;21.40;77.60;;;;;;5046317;28;20190;-78
2022/09/06 01:11:04;;;;;;;6.55;3.55;;;21.40;78.00;;;;;;5043774;28;20273;-78
2022/09/06 01:13:43;;;;;;;11.65;3.72;;;21.30;78.20;;;;;;5044122;28;20195;-78
2022/09/06 01:16:18;;;;;;;6.00;3.92;;;21.30;78.40;;;;;;5043219;28;20190;-78
2022/09/06 01:18:59;;;;;;;6.50;3.38;;;21.30;78.80;;;;;;5047805;28;20252;-79
2022/09/06 01:21:45;;;;;;;7.72;3.60;;;21.20;79.10;;;;;;5043000;28;20194;-78
2022/09/06 01:24:48;;;;;;;6.50;3.78;;;21.20;79.40;;;;;;5042758;28;20202;-77
2022/09/06 01:27:58;;;;;;;5.93;3.40;;;21.10;79.40;;;;;;5040092;28;20672;-77
2022/09/06 01:30:30;;;;;;;5.00;3.00;;;21.10;79.10;;;;;;5022467;28;20709;-77
2022/09/06 01:33:08;;;;;;;4.70;3.10;;;21.10;79.20;;;;;;5044353;28;20237;-77
2022/09/06 01:35:41;;;;;;;5.23;3.00;;;21.10;79.20;;;;;;5040306;28;20187;-78
2022/09/06 01:38:10;;;;;;;6.10;3.80;;;21.10;79.10;;;;;;5041900;28;20227;-78
2022/09/06 01:40:38;;;;;;;6.45;3.53;;;21.10;79.10;;;;;;5045507;28;20195;-77
2022/09/06 01:43:12;;;;;;;6.13;3.15;;;21.10;79.00;;;;;;5043744;28;20211;-77
2022/09/06 01:45:51;;;;;;;5.28;2.92;;;21.10;79.00;;;;;;5043718;28;20576;-77
2022/09/06 01:48:30;;;;;;;6.22;3.55;;;21.10;79.20;;;;;;5044640;28;20319;-77
2022/09/06 01:51:09;;;;;;;5.22;3.25;;;21.00;79.10;;;;;;5044543;28;20202;-78
2022/09/06 01:53:50;;;;;;;4.80;2.67;;;21.00;79.20;;;;;;5044451;28;20190;-77
2022/09/06 01:56:29;;;;;;;6.25;2.80;;;21.00;79.40;;;;;;5046088;28;20558;-78
2022/09/06 01:59:25;;;;;;;5.05;3.22;;;21.00;79.40;;;;;;5045274;28;21020;-77
2022/09/06 02:02:03;;;;;;;6.97;2.83;;;21.00;79.20;;;;;;5046702;28;20199;-78
2022/09/06 02:04:38;;;;;;;5.10;2.95;;;21.00;79.10;;;;;;5041392;28;20197;-79
2022/09/06 02:07:12;;;;;;;4.80;2.65;;;21.00;79.10;;;;;;5042233;28;20203;-78
2022/09/06 02:09:43;;;;;;;5.78;2.72;;;21.00;78.90;;;;;;5039096;28;20291;-78
2022/09/06 02:12:14;;;;;;;6.75;2.88;;;21.00;79.10;;;;;;5037997;28;20203;-77
2022/09/06 02:14:46;;;;;;;5.78;3.10;;;21.00;79.10;;;;;;5030990;28;20720;-77
2022/09/06 02:17:18;;;;;;;4.67;2.93;;;20.90;79.10;;;;;;5043320;28;20191;-78
2022/09/06 02:19:49;;;;;;;5.05;3.10;;;20.90;79.10;;;;;;5043450;28;20195;-78
2022/09/06 02:22:23;;;;;;;6.32;3.25;;;20.90;79.10;;;;;;5043256;28;20369;-78
2022/09/06 02:24:53;;;;;;;4.03;2.47;;;20.90;79.10;;;;;;5042851;28;20286;-77
2022/09/06 02:27:22;;;;;;;6.87;3.00;;;20.90;78.90;;;;;;5044022;28;20206;-78
2022/09/06 02:29:50;;;;;;;6.13;2.85;;;20.90;78.90;;;;;;5043016;28;20892;-78
2022/09/06 02:32:22;;;;;;;6.30;2.80;;;20.80;79.10;;;;;;5043926;28;20199;-77
2022/09/06 02:34:52;;;;;;;7.10;2.78;;;20.80;79.10;;;;;;5039039;28;20195;-78
2022/09/06 02:37:20;;;;;;;5.43;2.95;;;20.80;79.20;;;;;;5037272;28;20727;-78
2022/09/06 02:39:49;;;;;;;5.90;2.67;;;20.80;79.10;;;;;;5042217;28;20203;-77
2022/09/06 02:42:17;;;;;;;3.90;2.40;;;20.80;79.10;;;;;;5038916;28;20204;-79
2022/09/06 02:44:46;;;;;;;5.03;2.90;;;20.80;79.00;;;;;;5041728;28;20648;-78
2022/09/06 02:47:15;;;;;;;6.60;2.37;;;20.90;78.90;;;;;;5039606;28;20219;-77
2022/09/06 02:49:45;;;;;;;5.05;2.50;;;20.80;78.80;;;;;;5039395;28;20211;-77
2022/09/06 02:52:14;;;;;;;6.70;3.00;;;20.80;78.60;;;;;;5043968;28;20207;-77
2022/09/06 02:54:42;;;;;;;4.13;2.33;;;20.90;78.50;;;;;;5038785;28;20194;-76
2022/09/06 02:57:11;;;;;;;4.72;2.50;;;20.80;78.40;;;;;;5036216;28;20780;-78
2022/09/06 02:59:39;;;;;;;4.13;2.08;;;20.90;78.30;;;;;;5041683;28;20206;-77
2022/09/06 03:02:08;;;;;;;4.45;2.35;;;20.90;78.20;;;;;;5041861;28;20637;-77
2022/09/06 03:04:36;;;;;;;3.80;2.25;;;20.90;78.10;;;;;;5039424;28;20225;-78
2022/09/06 03:07:06;;;;;;;4.43;2.40;;;20.90;78.00;;;;;;5037505;28;20222;-77
2022/09/06 03:09:34;;;;;;;5.10;2.33;;;20.90;77.90;;;;;;5038480;28;20198;-78
2022/09/06 03:12:03;;;;;;;3.75;2.60;;;20.90;77.70;;;;;;5042669;28;20206;-77
2022/09/06 03:14:34;;;;;;;4.28;2.20;;;20.90;77.60;;;;;;5042318;28;20198;-78
2022/09/06 03:17:03;;;;;;;10.18;2.67;;;20.90;77.60;;;;;;5040407;28;20271;-78
2022/09/06 03:19:31;;;;;;;4.32;2.38;;;20.90;77.60;;;;;;5035540;28;20195;-78
2022/09/06 03:22:00;;;;;;;5.88;2.65;;;20.90;77.70;;;;;;5044943;28;20210;-78
2022/09/06 03:24:30;;;;;;;5.65;2.53;;;20.90;77.80;;;;;;5041429;28;20201;-78
2022/09/06 03:26:58;;;;;;;7.73;2.70;;;20.90;77.90;;;;;;5040422;28;20708;-78
2022/09/06 03:29:26;;;;;;;5.77;2.67;;;20.90;77.90;;;;;;5039100;28;20225;-78
2022/09/06 03:31:55;;;;;;;4.10;2.67;;;20.90;78.00;;;;;;5041472;28;20203;-78
2022/09/06 03:34:23;;;;;;;5.00;2.92;;;20.90;78.10;;;;;;5043388;28;20206;-79
2022/09/06 03:36:52;;;;;;;5.53;2.88;;;20.90;78.20;;;;;;5036599;28;20660;-80
2022/09/06 03:39:20;;;;;;;5.47;2.78;;;20.80;78.50;;;;;;5030029;28;20396;-78
2022/09/06 03:41:50;;;;;;;5.45;2.85;;;20.80;78.60;;;;;;5042547;28;20210;-78
2022/09/06 03:44:18;;;;;;;5.15;3.03;;;20.80;78.80;;;;;;5040674;28;20195;-78
2022/09/06 03:46:46;;;;;;;5.83;3.13;;;20.80;79.10;;;;;;5037906;28;20578;-78
2022/09/06 03:49:15;;;;;;;4.72;3.03;;;20.80;79.50;;;;;;5035471;28;20676;-79
2022/09/06 03:51:43;;;;;;;10.07;2.90;;;20.80;79.40;;;;;;5040125;28;20225;-77
2022/09/06 03:54:12;;;;;;;7.60;3.03;;;20.80;79.50;;;;;;5043300;28;20203;-78
2022/09/06 03:56:40;;;;;;;6.50;3.07;;;20.70;79.40;;;;;;5040008;28;20202;-77
2022/09/06 03:59:10;;;;;;;5.85;3.13;;;20.80;79.60;;;;;;5041534;28;20445;-78
2022/09/06 04:01:38;;;;;;;4.97;2.90;;;20.80;79.80;;;;;;5037576;28;20199;-79
2022/09/06 04:04:07;;;;;;;5.50;2.63;;;20.80;79.70;;;;;;5039486;28;20205;-78
2022/09/06 04:06:35;;;;;;;4.90;2.80;;;20.80;79.70;;;;;;5035137;28;20294;-77
2022/09/06 04:09:04;;;;;;;6.28;3.03;;;20.70;79.70;;;;;;5041816;28;20225;-77
2022/09/06 04:11:32;;;;;;;5.10;2.80;;;20.80;79.80;;;;;;5033808;28;20549;-78
2022/09/06 04:14:01;;;;;;;6.70;3.00;;;20.80;79.80;;;;;;5041454;28;20199;-79
2022/09/06 04:16:30;;;;;;;5.03;3.50;;;20.80;79.80;;;;;;5037877;28;20723;-77
2022/09/06 04:19:01;;;;;;;7.07;3.35;;;20.80;79.80;;;;;;5042798;28;20195;-77
2022/09/06 04:21:30;;;;;;;8.27;3.20;;;20.80;80.00;;;;;;5041105;28;20195;-77
2022/09/06 04:23:58;;;;;;;7.07;3.70;;;20.80;80.10;;;;;;5040609;28;20199;-77
2022/09/06 04:26:27;;;;;;;7.03;3.67;;;20.70;80.90;;;;;;5040658;28;20215;-77
2022/09/06 04:28:55;;;;;;;6.40;3.27;;;20.80;80.20;;;;;;5041605;28;20203;-77
2022/09/06 04:31:23;;;;;;;5.50;3.50;;;20.80;80.40;;;;;;5038596;28;20199;-77
2022/09/06 04:33:53;;;;;;;6.70;3.40;;;20.80;80.50;;;;;;5037952;28;20645;-78
2022/09/06 04:36:22;;;;;;;6.10;3.20;;;20.80;80.70;;;;;;5039537;28;20706;-77
2022/09/06 04:38:50;;;;;;;6.37;3.70;;;20.80;80.60;;;;;;5041358;28;20219;-77
2022/09/06 04:41:19;;;;;;;7.37;3.43;;;20.80;80.60;;;;;;5038016;28;20199;-79
2022/09/06 04:43:48;;;;;;;4.07;2.80;;;20.80;80.70;;;;;;5032309;28;20665;-79
2022/09/06 04:46:20;;;;;;;6.53;3.13;;;20.80;80.70;;;;;;5042633;28;20665;-79
2022/09/06 04:48:49;;;;;;;9.20;3.83;;;20.80;81.00;;;;;;5046492;28;20566;-80
2022/09/06 04:51:20;;;;;;;6.68;3.60;;;20.80;81.50;;;;;;5033221;28;20195;-79
2022/09/06 04:53:48;;;;;;;6.60;4.00;;;20.70;81.40;;;;;;5039363;28;20194;-80
2022/09/06 04:56:19;;;;;;;8.83;3.67;;;20.70;81.60;;;;;;5037166;28;20882;-78
2022/09/06 04:58:49;;;;;;;7.40;3.47;;;20.70;81.70;;;;;;5039108;28;20195;-79
2022/09/06 05:01:17;;;;;;;5.13;3.38;;;20.70;81.70;;;;;;5035636;28;20198;-79
2022/09/06 05:03:46;;;;;;;7.30;3.47;;;20.70;81.90;;;;;;5037078;28;20286;-79
2022/09/06 05:06:21;;;;;;;5.70;3.60;;;20.70;82.00;;;;;;5041387;28;20206;-79
2022/09/06 05:08:50;;;;;;;7.65;3.95;;;20.70;82.00;;;;;;5038908;28;20206;-76
2022/09/06 05:11:19;;;;;;;7.40;3.67;;;20.70;82.30;;;;;;5040120;28;20205;-73
2022/09/06 05:13:49;;;;;;;8.27;4.30;;;20.70;82.40;;;;;;5035788;28;20203;-75
2022/09/06 05:16:17;;;;;;;11.77;4.47;;;20.70;82.70;;;;;;5036590;28;20264;-73
2022/09/06 05:18:46;;;;;;;7.03;4.10;;;20.70;83.10;;;;;;5037414;28;20586;-75
2022/09/06 05:21:14;;;;;;;7.87;4.53;;;20.70;83.50;;;;;;5039210;28;20701;-75
2022/09/06 05:23:44;;;;;;;11.33;4.17;;;20.60;83.80;;;;;;5041739;28;20908;-75
2022/09/06 05:26:13;;;;;;;8.83;4.03;;;20.60;84.80;;;;;;5042875;28;20191;-75
2022/09/06 05:28:41;;;;;;;11.23;4.50;;;20.60;85.00;;;;;;5039514;28;20210;-75
2022/09/06 05:31:11;;;;;;;13.93;4.17;;;20.50;85.10;;;;;;5036366;28;20210;-75
2022/09/06 05:33:40;;;;;;;6.78;3.58;;;20.50;85.30;;;;;;5036953;28;20202;-75
2022/09/06 05:36:08;;;;;;;6.90;3.97;;;20.50;85.30;;;;;;5044333;28;20256;-76
2022/09/06 05:38:37;;;;;;;5.80;3.60;;;20.40;85.20;;;;;;5040791;28;20235;-75
2022/09/06 05:41:07;;;;;;;9.40;3.83;;;20.50;85.30;;;;;;5030820;28;20199;-75
2022/09/06 05:43:35;;;;;;;5.57;3.77;;;20.40;85.50;;;;;;5048568;28;20644;-75
2022/09/06 05:46:04;;;;;;;7.67;4.53;;;20.40;85.60;;;;;;5044237;28;20199;-75
2022/09/06 05:48:33;;;;;;;10.80;4.27;;;20.40;85.80;;;;;;5041346;28;20208;-76
2022/09/06 05:51:06;;;;;;;8.30;4.00;;;20.40;86.20;;;;;;5047291;28;20203;-75
2022/09/06 05:53:35;;;;;;;6.75;4.28;;;20.40;86.30;;;;;;5044887;28;20440;-75
2022/09/06 05:56:06;;;;;;;8.60;3.88;;;20.40;88.00;;;;;;5042323;28;20563;-75
2022/09/06 05:58:35;;;;;;;7.97;3.80;;;20.40;87.70;;;;;;5041197;28;20203;-74
2022/09/06 06:01:07;;;;;;;9.40;4.53;;;20.40;87.60;;;;;;5043238;28;20205;-75
2022/09/06 06:03:36;;;;;;;10.00;4.63;;;20.40;87.70;;;;;;5031733;28;20201;-75
2022/09/06 06:06:05;;;;;;;5.35;3.88;;;20.40;87.70;;;;;;5044273;28;20278;-75
2022/09/06 06:08:35;;;;;;;10.85;4.43;;;20.50;87.70;;;;;;5044971;28;20700;-75
2022/09/06 06:11:04;;;;;;;7.75;4.50;;;20.50;87.80;;;;;;5042489;28;20206;-75
2022/09/06 06:13:38;;;;;;;6.90;4.18;;;20.50;87.80;;;;;;5042042;28;20198;-75
2022/09/06 06:16:07;;;;;;;8.45;5.43;;;20.50;87.80;;;;;;5041396;28;20199;-76
2022/09/06 06:18:36;;;;;;;8.80;5.43;;;20.50;87.90;;;;;;5043753;28;20196;-75
2022/09/06 06:21:14;;;;;;;8.65;4.70;;;20.60;88.10;;;;;;5044865;28;20199;-75
2022/09/06 06:23:44;;;;;;;7.25;4.60;;;20.60;88.20;;;;;;5044979;28;20202;-77
2022/09/06 06:26:13;;;;;;;7.97;4.43;;;20.60;88.10;;;;;;5045253;28;20192;-76
2022/09/06 06:28:44;;;;;;;8.18;4.85;;;20.70;88.20;;;;;;5037724;28;20273;-76
2022/09/06 06:31:13;;;;;;;8.05;4.82;;;20.70;88.50;;;;;;5032867;28;20207;-76
2022/09/06 06:33:43;;;;;;;9.60;4.75;;;20.70;88.30;;;;;;5040273;28;20869;-75
2022/09/06 06:36:21;;;;;;;7.10;4.75;;;20.70;88.20;;;;;;5042456;28;20198;-76
2022/09/06 06:38:54;;;;;;;15.40;5.47;;;20.70;88.20;;;;;;5044721;28;20215;-75
2022/09/06 06:41:24;;;;;;;8.47;5.03;;;20.80;88.20;;;;;;5039880;28;20199;-75
2022/09/06 06:43:55;;;;;;;7.60;4.57;;;20.80;88.20;;;;;;5037820;28;20199;-76
2022/09/06 06:46:26;;;;;;;8.13;4.63;;;20.80;88.10;;;;;;5032895;28;20191;-76
2022/09/06 06:48:55;;;;;;;10.10;4.78;;;20.90;88.20;;;;;;5042665;28;20700;-77
2022/09/06 06:51:26;;;;;;;8.48;4.70;;;20.90;88.20;;;;;;5040644;28;20807;-77
2022/09/06 06:53:55;;;;;;;6.85;4.18;;;20.90;88.00;;;;;;5031308;28;20234;-76
2022/09/06 06:56:26;;;;;;;8.93;4.30;;;21.00;87.90;;;;;;5041495;28;20837;-76
2022/09/06 06:58:57;;;;;;;7.97;5.05;;;21.00;87.60;;;;;;5043426;28;20213;-77
2022/09/06 07:01:27;;;;;;;7.20;4.30;;;21.10;87.60;;;;;;5037831;28;20188;-77
2022/09/06 07:03:56;;;;;;;10.38;4.97;;;21.10;87.40;;;;;;5032785;28;20230;-76
2022/09/06 07:06:27;;;;;;;7.43;4.65;;;21.10;87.30;;;;;;5037763;28;20202;-77
2022/09/06 07:09:16;;;;;;;7.50;4.70;;;21.10;87.00;;;;;;5042282;28;20296;-77
2022/09/06 07:11:47;;;;;;;10.82;4.80;;;21.20;87.00;;;;;;5039564;28;20215;-76
2022/09/06 07:14:17;;;;;;;9.07;4.78;;;21.20;87.10;;;;;;5043760;28;20203;-76
2022/09/06 07:16:45;;;;;;;9.75;4.75;;;21.20;86.80;;;;;;5043753;28;20203;-76
2022/09/06 07:19:13;;;;;;;11.32;4.93;;;21.30;86.60;;;;;;5045198;28;20191;-76
2022/09/06 07:22:02;;;;;;;10.00;4.43;;;21.30;86.30;;;;;;5040401;28;20195;-76
2022/09/06 07:24:33;;;;;;;10.73;4.47;;;21.30;86.00;;;;;;5042884;28;20238;-75
2022/09/06 07:27:01;;;;;;;7.15;4.25;;;21.40;85.80;;;;;;5044823;28;20664;-76
2022/09/06 07:29:51;;;;;;;8.90;4.03;;;21.40;84.80;;;;;;5034059;28;20385;-76
2022/09/06 07:32:19;;;;;;;5.25;3.50;;;21.50;84.70;;;;;;5037428;28;20195;-77
2022/09/06 07:34:47;;;;;;;5.90;3.65;;;21.50;84.40;;;;;;5034392;28;20648;-77
2022/09/06 07:37:16;;;;;;;8.48;4.20;;;21.60;84.10;;;;;;5042267;28;20199;-76
2022/09/06 07:39:44;;;;;;;6.38;4.18;;;21.60;83.80;;;;;;5044065;28;20707;-76
2022/09/06 07:42:13;;;;;;;7.20;3.58;;;21.70;84.10;;;;;;5041058;28;20195;-76
2022/09/06 07:44:41;;;;;;;6.90;3.80;;;21.70;84.20;;;;;;5041295;28;20210;-76
2022/09/06 07:47:14;;;;;;;5.80;3.30;;;21.80;84.00;;;;;;5041603;28;20195;-76
2022/09/06 07:50:03;;;;;;;5.90;3.40;;;21.80;83.80;;;;;;5040717;28;20230;-75
2022/09/06 07:52:54;;;;;;;6.88;3.60;;;21.90;83.40;;;;;;4981345;28;20738;-77
2022/09/06 07:55:43;;;;;;;6.43;3.55;;;21.90;82.80;;;;;;4976511;28;20213;-76
2022/09/06 07:58:11;;;;;;;5.88;2.95;;;22.00;81.40;;;;;;4986580;28;20226;-77
2022/09/06 08:00:39;;;;;;;8.98;3.35;;;22.00;80.90;;;;;;4981476;28;20874;-77
2022/09/06 08:03:11;;;;;;;7.07;3.17;;;22.10;80.20;;;;;;4980468;28;20209;-77
2022/09/06 08:05:39;;;;;;;5.28;3.28;;;22.10;80.20;;;;;;4992211;28;20213;-77
2022/09/06 08:08:28;;;;;;;7.97;3.70;;;22.20;79.00;;;;;;4980905;28;20702;-77
2022/09/06 08:11:17;;;;;;;7.72;3.40;;;22.30;79.00;;;;;;5015500;28;20256;-78
2022/09/06 08:13:50;;;;;;;4.95;2.83;;;22.30;78.80;;;;;;5041305;28;20691;-77
2022/09/06 08:16:18;;;;;;;7.53;3.10;;;22.40;78.70;;;;;;5040271;28;20186;-77
2022/09/06 08:18:52;;;;;;;6.70;3.28;;;22.50;78.90;;;;;;5041829;28;20219;-77
2022/09/06 08:21:22;;;;;;;6.43;3.28;;;22.50;78.90;;;;;;5039730;28;20191;-76
2022/09/06 08:23:54;;;;;;;12.52;4.18;;;22.60;78.80;;;;;;5040902;28;20560;-79
2022/09/06 08:26:24;;;;;;;7.07;3.17;;;22.60;78.60;;;;;;5042251;28;20218;-76
2022/09/06 08:28:57;;;;;;;7.55;3.28;;;22.70;78.80;;;;;;5040290;28;20868;-79
2022/09/06 08:31:30;;;;;;;5.63;3.40;;;22.80;78.20;;;;;;5037510;28;20210;-78
2022/09/06 08:34:01;;;;;;;7.05;3.30;;;22.80;77.70;;;;;;5042086;28;20191;-78
2022/09/06 08:36:30;;;;;;;5.95;3.33;;;22.80;77.30;;;;;;5034353;28;20212;-78
2022/09/06 08:39:00;;;;;;;8.75;3.40;;;22.90;77.30;;;;;;5039197;28;20238;-78
2022/09/06 08:41:32;;;;;;;5.30;3.20;;;23.00;77.00;;;;;;5037614;28;20221;-79
2022/09/06 08:44:05;;;;;;;6.88;3.58;;;23.00;76.70;;;;;;5040503;28;20205;-81
2022/09/06 08:46:57;;;;;;;5.60;2.92;;;23.00;76.90;;;;;;5039570;28;20214;-80
2022/09/06 08:49:30;;;;;;;7.63;3.50;;;23.10;76.90;;;;;;5043460;28;20211;-80
2022/09/06 08:52:20;;;;;;;6.85;3.22;;;23.20;76.90;;;;;;5033289;28;20203;-81
2022/09/06 08:54:55;;;;;;;5.90;3.05;;;23.20;76.30;;;;;;5043510;28;20199;-81
2022/09/06 08:57:45;;;;;;;6.03;3.22;;;23.20;76.10;;;;;;5041091;28;20191;-79
2022/09/06 09:00:14;;;;;;;7.05;3.78;;;23.20;75.30;;;;;;5045596;28;20194;-80
2022/09/06 09:02:45;;;;;;;6.68;3.63;;;23.30;74.90;;;;;;5034750;28;20199;-81
2022/09/06 09:05:24;;;;;;;6.88;3.60;;;23.30;74.90;;;;;;5044487;28;20191;-82
2022/09/06 09:08:02;;;;;;;6.82;3.25;;;23.30;74.30;;;;;;5047212;28;20191;-81
2022/09/06 09:10:34;;;;;;;6.40;3.67;;;23.30;74.30;;;;;;5039873;28;20230;-84
2022/09/06 09:13:04;;;;;;;10.23;3.42;;;23.40;74.40;;;;;;5042702;28;20249;-82
2022/09/06 09:15:36;;;;;;;7.35;3.58;;;23.50;74.40;;;;;;5044328;28;20656;-77
2022/09/06 09:18:08;;;;;;;8.60;3.70;;;23.50;74.40;;;;;;5050065;28;20197;-82
2022/09/06 09:20:39;;;;;;;7.47;3.83;;;23.50;74.30;;;;;;5046739;28;20195;-79
2022/09/06 09:23:13;;;;;;;9.38;4.00;;;23.60;74.10;;;;;;5048971;28;20198;-79
2022/09/06 09:25:45;;;;;;;9.63;3.67;;;23.60;74.00;;;;;;5047189;28;20784;-81
2022/09/06 09:28:19;;;;;;;11.02;3.65;;;23.60;73.70;;;;;;5046838;28;20195;-81
2022/09/06 09:30:51;;;;;;;6.45;3.33;;;23.70;73.70;;;;;;5041053;28;20269;-83
2022/09/06 09:33:25;;;;;;;7.72;3.85;;;23.80;73.60;;;;;;5053184;28;20260;-83
2022/09/06 09:36:01;;;;;;;8.60;3.88;;;23.90;73.10;;;;;;5050176;28;20202;-83
2022/09/06 09:38:41;;;;;;;6.32;3.42;;;23.90;73.00;;;;;;5054262;28;20234;-84
2022/09/06 09:41:28;;;;;;;6.05;3.70;;;24.00;72.20;;;;;;5048753;28;20192;-81
2022/09/06 09:43:59;;;;;;;6.50;3.63;;;24.10;71.80;;;;;;5047043;28;20272;-84
2022/09/06 09:46:37;;;;;;;4.68;3.08;;;24.10;71.60;;;;;;5038784;28;20613;-84
2022/09/06 09:49:12;;;;;;;5.45;3.15;;;24.20;70.80;;;;;;5048089;28;20191;-83
2022/09/06 09:51:44;;;;;;;7.35;3.42;;;24.20;70.40;;;;;;5049474;28;20204;-82
2022/09/06 09:54:15;;;;;;;4.80;3.08;;;24.30;70.10;;;;;;5043278;28;20199;-83
2022/09/06 09:56:47;;;;;;;5.55;3.10;;;24.30;69.60;;;;;;5046973;28;20207;-82
2022/09/06 09:59:23;;;;;;;5.93;3.28;;;24.40;69.80;;;;;;5044643;28;20555;-82
2022/09/06 10:01:54;;;;;;;6.03;3.72;;;24.40;68.80;;;;;;5036362;28;20191;-81
2022/09/06 10:04:29;;;;;;;4.80;3.17;;;24.40;68.90;;;;;;5046848;28;20199;-81
2022/09/06 10:07:17;;;;;;;5.70;3.17;;;24.50;68.70;;;;;;5047983;28;20206;-82
2022/09/06 10:09:48;;;;;;;6.28;3.25;;;24.50;68.40;;;;;;5038395;28;20199;-81
2022/09/06 10:12:19;;;;;;;8.45;3.63;;;24.60;67.50;;;;;;5039269;28;20188;-80
2022/09/06 10:14:49;;;;;;;6.47;4.07;;;24.60;67.00;;;;;;5039819;28;20484;-80
2022/09/06 10:17:28;;;;;;;10.32;3.30;;;24.70;66.00;;;;;;5037234;28;20199;-82
2022/09/06 10:20:00;;;;;;;4.78;2.75;;;24.60;66.10;;;;;;5037320;28;20186;-81
2022/09/06 10:22:32;;;;;;;6.75;3.13;;;24.70;66.50;;;;;;5038934;28;20837;-82
2022/09/06 10:25:21;;;;;;;5.75;3.22;;;24.70;66.70;;;;;;5039716;28;20203;-81
2022/09/06 10:28:12;;;;;;;7.85;3.45;;;24.80;66.70;;;;;;5038517;28;20668;-81
2022/09/06 10:30:47;;;;;;;6.00;2.90;;;24.80;66.60;;;;;;5035716;28;20230;-81
2022/09/06 10:33:26;;;;;;;7.68;2.50;;;24.90;66.70;;;;;;5040055;28;20734;-79
2022/09/06 10:35:58;;;;;;;5.75;2.72;;;25.00;66.70;;;;;;5037630;28;20649;-79
2022/09/06 10:38:45;;;;;;;5.93;3.08;;;25.00;66.40;;;;;;5006557;28;20231;-81
2022/09/06 10:41:31;;;;;;;8.82;2.80;;;25.10;66.00;;;;;;5041454;28;21070;-81
2022/09/06 10:44:14;;;;;;;7.78;2.40;;;25.10;65.80;;;;;;5045350;28;20194;-81
2022/09/06 10:46:45;;;;;;;11.05;3.08;;;25.20;65.70;;;;;;5045353;28;20195;-80
2022/09/06 10:49:18;;;;;;;8.45;2.83;;;25.20;65.10;;;;;;5042100;28;20732;-81
2022/09/06 10:51:51;;;;;;;6.47;2.63;;;25.20;64.80;;;;;;5039446;28;20211;-81
2022/09/06 10:54:23;;;;;;;5.38;2.50;;;25.20;64.30;;;;;;5048103;28;20198;-80
2022/09/06 10:56:56;;;;;;;7.88;3.28;;;25.10;64.20;;;;;;5039740;28;20194;-80
2022/09/06 10:59:29;;;;;;;5.30;2.90;;;25.10;64.40;;;;;;5034133;28;20225;-79
2022/09/06 11:02:16;;;;;;;5.68;3.05;;;25.10;64.40;;;;;;5038313;28;20210;-80
2022/09/06 11:04:49;;;;;;;7.47;3.20;;;25.10;63.90;;;;;;5042244;28;20603;-80
2022/09/06 11:07:40;;;;;;;6.03;2.92;;;25.10;63.40;;;;;;5041735;28;20199;-79
2022/09/06 11:10:18;;;;;;;5.05;3.10;;;25.20;63.70;;;;;;5036446;28;20722;-79
2022/09/06 11:12:53;;;;;;;7.40;3.55;;;25.20;63.40;;;;;;5041843;28;20219;-78
2022/09/06 11:15:24;;;;;;;6.97;3.30;;;25.20;62.70;;;;;;5041181;28;20195;-79
2022/09/06 11:17:59;;;;;;;7.53;3.58;;;25.20;62.50;;;;;;5038671;28;20238;-80
2022/09/06 11:20:37;;;;;;;6.43;3.08;;;25.30;62.50;;;;;;5039231;28;20564;-79
2022/09/06 11:23:23;;;;;;;5.45;3.08;;;25.30;62.90;;;;;;5035939;28;20213;-79
2022/09/06 11:26:22;;;;;;;5.25;2.78;;;25.30;62.40;;;;;;5042234;28;20576;-80
2022/09/06 11:28:55;;;;;;;5.50;3.17;;;25.40;62.60;;;;;;5037190;28;20202;-81
2022/09/06 11:31:26;;;;;;;7.15;2.65;;;25.40;62.60;;;;;;5039907;28;20890;-79
2022/09/06 11:34:23;;;;;;;6.85;2.90;;;25.50;62.90;;;;;;5042626;28;20195;-79
2022/09/06 11:36:56;;;;;;;5.25;2.83;;;25.60;62.70;;;;;;5030801;28;20199;-78
2022/09/06 11:39:28;;;;;;;5.93;2.42;;;25.60;62.80;;;;;;5022640;28;20228;-79
2022/09/06 11:43:02;;;;;;;7.90;2.95;;;25.70;62.80;;;;;;5020076;28;21409;-79
2022/09/06 11:45:44;;;;;;;7.03;2.85;;;25.70;62.10;;;;;;5008417;28;20199;-80
2022/09/06 11:48:47;;;;;;;4.30;2.70;;;25.80;61.90;;;;;;5016992;28;20187;-78
2022/09/06 11:51:33;;;;;;;5.47;2.78;;;25.80;61.50;;;;;;5025402;28;20212;-78
2022/09/06 11:54:25;;;;;;;5.15;2.63;;;25.80;61.30;;;;;;5023206;28;20196;-79
2022/09/06 11:57:01;;;;;;;8.23;3.05;;;25.90;61.20;;;;;;5017791;28;20195;-83
2022/09/06 11:59:39;;;;;;;7.28;3.55;;;25.90;61.10;;;;;;5018129;28;20209;-81
2022/09/06 12:05:26;;;;;;;5.68;3.20;;;26.10;61.30;;;;;;5019503;28;20208;-81
2022/09/06 12:08:23;;;;;;;7.72;3.50;;;26.10;61.00;;;;;;5023517;28;20943;-80
2022/09/06 12:11:06;;;;;;;8.05;2.97;;;26.10;59.80;;;;;;5019803;28;20200;-78
2022/09/06 12:13:58;;;;;;;5.30;3.08;;;26.20;60.10;;;;;;5020356;28;20200;-80
2022/09/06 12:17:07;;;;;;;7.15;3.55;;;26.30;60.00;;;;;;5027167;28;20206;-80
2022/09/06 12:19:43;;;;;;;4.70;2.95;;;26.40;60.10;;;;;;5020573;28;20562;-79
2022/09/06 12:22:52;;;;;;;4.20;2.65;;;26.40;60.00;;;;;;5022716;28;20711;-79
2022/09/06 12:25:57;;;;;;;5.25;3.30;;;26.40;59.00;;;;;;5008730;28;20206;-79
2022/09/06 12:28:35;;;;;;;6.90;3.30;;;26.50;58.50;;;;;;5021781;28;20295;-79
2022/09/06 12:31:29;;;;;;;6.28;3.50;;;26.50;58.40;;;;;;5018132;28;20670;-78
2022/09/06 12:33:59;;;;;;;5.95;3.45;;;26.50;58.60;;;;;;5018950;28;20286;-80
2022/09/06 12:36:31;;;;;;;5.80;3.20;;;26.50;58.00;;;;;;5024104;28;20199;-79
2022/09/06 12:39:02;;;;;;;6.30;3.42;;;26.50;58.20;;;;;;5033092;28;20235;-78
2022/09/06 12:41:36;;;;;;;5.43;3.30;;;26.40;57.80;;;;;;5041180;28;20460;-79
2022/09/06 12:44:11;;;;;;;8.57;3.33;;;26.40;57.80;;;;;;5044511;28;20195;-78
2022/09/06 12:46:47;;;;;;;5.13;3.28;;;26.40;57.80;;;;;;5038432;28;20210;-80
2022/09/06 12:49:19;;;;;;;4.72;3.20;;;26.40;58.00;;;;;;5048948;28;20790;-80
2022/09/06 12:51:50;;;;;;;7.07;3.80;;;26.40;58.30;;;;;;5041150;28;20213;-78
2022/09/06 12:54:21;;;;;;;6.40;3.35;;;26.40;57.70;;;;;;5040408;28;20612;-79
2022/09/06 12:56:50;;;;;;;5.90;2.88;;;26.50;57.90;;;;;;5041737;28;20784;-79
2022/09/06 12:59:20;;;;;;;6.00;2.90;;;26.50;58.10;;;;;;5038474;28;20571;-80
2022/09/06 13:02:00;;;;;;;6.95;3.40;;;26.50;58.20;;;;;;5042936;28;20682;-79
2022/09/06 13:04:35;;;;;;;6.10;3.22;;;26.50;58.00;;;;;;5032834;28;20195;-80
2022/09/06 13:07:06;;;;;;;8.77;3.03;;;26.60;57.80;;;;;;5034784;28;20195;-78
2022/09/06 13:09:34;;;;;;;5.22;3.10;;;26.60;57.90;;;;;;5040421;28;20187;-80
2022/09/06 13:12:06;;;;;;;7.85;3.90;;;26.60;58.00;;;;;;5037628;28;20211;-80
2022/09/06 13:14:36;;;;;;;5.93;3.13;;;26.70;58.10;;;;;;5039409;28;20202;-80
2022/09/06 13:17:04;;;;;;;6.78;2.85;;;26.80;58.40;;;;;;5039417;28;20225;-79
2022/09/06 13:19:35;;;;;;;5.88;3.03;;;26.80;58.40;;;;;;5040953;28;20210;-78
2022/09/06 13:22:07;;;;;;;5.70;3.20;;;26.80;58.10;;;;;;5042699;28;20190;-79